Etusivu
METAR-TAF:

METAR-TAF

Lentoasemat :

Trollhättan-Vänersborg, Ruotsi

Leveyspiiri: 58-19N, Pituuspiiri: 012-21E, korkeus merenpinnasta: 41 m

Tämänhetkinen sää

Tämä raportti tehtiin 10 tuntia ja 1 minuuttia sitten, kello 17.50 UTC
Tuuli 5 kn luoteesta
Lämpötila 22°C
Kosteus 46%
Ilmanpaine 1014 hPa
Näkyvyys 10 km tai enemmän
ei pilviä alle 1500 m:ssä eikä cumulonimbus-pilviä

METAR: ESGT 241750Z 32005KT CAVOK 22/10 Q1014

Aika: 05:51 (03:51 UTC)

Sääennuste

Tämä raportti tehtiin 12 tuntia ja 21 minuuttia sitten, kello 15.30 UTC
Ennuste voimassa 24. päivästä klo 16 UTC - 24. päivään klo 19 UTC
Tuuli 5 kn idästä/koillisesta
Näkyvyys 10 km tai enemmän
ei pilviä alle 1500 m:ssä eikä cumulonimbus-pilviä

TAF: ESGT 241530Z 2416/2419 06005KT CAVOK

Säähavainnot ja -ennusteet yli 4000 lentoasemalta (METAR- ja TAF-raportit).

Käytössä olevat sääasemat on merkitty karttaan keltaisilla ja punaisilla pisteillä.

Aseta hiiri pisteen päälle nähdäksesi sääaseman nimen.

Klikkaa sitten nähdäksesi säähavainnot ja -ennusteet.

Kartan vaihtaminen: klikkaa mustalla rastilla varustettuja vihreitä pisteitä, niin voit zoomata sisään; viivalla varustettua vihreää pistettä, niin voit zoomata ulos tai vihreitä nuolia, niin pääset viereisille kartoille.


METAR-TAF: